createdAt,value
2023-03-17T00:01:14.020Z,73.64
2023-03-17T00:06:21.487Z,73.66
2023-03-17T00:11:25.701Z,74.02
2023-03-17T00:16:28.691Z,74.18
2023-03-17T00:21:34.250Z,74.17
2023-03-17T00:26:38.002Z,74.22
2023-03-17T00:31:40.876Z,74.30
2023-03-17T00:36:45.004Z,74.40
2023-03-17T00:41:48.403Z,74.43
2023-03-17T00:46:51.956Z,74.68
2023-03-17T00:51:55.379Z,74.77
2023-03-17T00:56:58.534Z,75.08
2023-03-17T01:02:02.724Z,75.40
2023-03-17T01:07:06.171Z,75.50
2023-03-17T01:12:12.577Z,75.94
2023-03-17T01:17:19.187Z,76.12
2023-03-17T01:22:22.084Z,76.13
2023-03-17T01:27:37.810Z,76.18
2023-03-17T01:32:43.661Z,76.66
2023-03-17T01:37:46.871Z,76.76
2023-03-17T01:43:16.233Z,76.80
2023-03-17T01:48:19.336Z,77.27
2023-03-17T01:53:22.160Z,77.05
2023-03-17T01:58:25.141Z,76.99
2023-03-17T02:03:29.873Z,77.30
2023-03-17T02:08:32.975Z,77.45
2023-03-17T02:13:36.207Z,78.00
2023-03-17T02:18:39.467Z,77.77
2023-03-17T02:23:42.628Z,77.67
2023-03-17T02:28:46.225Z,78.11
2023-03-17T02:33:49.135Z,78.11
2023-03-17T02:38:52.837Z,78.21
2023-03-17T02:43:55.797Z,78.45
2023-03-17T02:48:58.809Z,78.44
2023-03-17T02:54:01.970Z,78.35
2023-03-17T02:59:05.342Z,78.45
2023-03-17T03:04:08.837Z,78.39
2023-03-17T03:09:13.313Z,78.40
2023-03-17T03:14:16.239Z,78.70
2023-03-17T03:19:19.193Z,78.56
2023-03-17T03:24:22.978Z,78.91
2023-03-17T03:29:25.945Z,79.10
2023-03-17T03:34:29.233Z,78.99
2023-03-17T03:39:32.061Z,79.17
2023-03-17T03:44:35.112Z,79.40
2023-03-17T03:49:38.186Z,79.31
2023-03-17T03:54:41.144Z,79.14
2023-03-17T03:59:44.021Z,79.24
2023-03-17T04:04:47.006Z,78.95
2023-03-17T04:09:49.915Z,79.04
2023-03-17T04:14:53.359Z,79.22
2023-03-17T04:19:56.284Z,79.38
2023-03-17T04:24:59.225Z,79.49
2023-03-17T04:30:02.690Z,79.46
2023-03-17T04:35:09.199Z,79.49
2023-03-17T04:40:13.898Z,79.34
2023-03-17T04:45:17.994Z,79.72
2023-03-17T04:50:20.937Z,79.48
2023-03-17T04:55:23.840Z,79.47
2023-03-17T05:00:28.141Z,79.58
2023-03-17T05:05:31.641Z,79.86
2023-03-17T05:10:34.540Z,79.79
2023-03-17T05:15:37.941Z,79.66
2023-03-17T05:20:41.471Z,79.57
2023-03-17T05:25:44.389Z,79.75
2023-03-17T05:30:48.664Z,79.94
2023-03-17T05:35:52.523Z,80.12
2023-03-17T05:40:55.564Z,80.36
2023-03-17T05:45:58.585Z,80.77
2023-03-17T05:51:01.752Z,80.80
2023-03-17T05:56:04.896Z,81.17
2023-03-17T06:01:08.100Z,81.25
2023-03-17T06:06:10.985Z,81.48
2023-03-17T06:11:14.024Z,81.99
2023-03-17T06:16:16.978Z,82.04
2023-03-17T06:21:19.997Z,82.19
2023-03-17T06:26:22.852Z,82.02
2023-03-17T06:31:26.609Z,81.98
2023-03-17T06:36:30.816Z,81.95
2023-03-17T06:41:36.597Z,81.84
2023-03-17T06:46:39.457Z,81.72
2023-03-17T06:51:42.358Z,81.84
2023-03-17T06:56:45.780Z,81.68
2023-03-17T07:01:49.518Z,81.36
2023-03-17T07:06:52.597Z,81.25
2023-03-17T07:11:55.495Z,81.06
2023-03-17T07:16:58.512Z,80.99
2023-03-17T07:22:01.506Z,80.76
2023-03-17T07:27:04.814Z,80.78
2023-03-17T07:32:08.601Z,80.56
2023-03-17T07:37:12.270Z,80.46
2023-03-17T07:42:17.152Z,80.41
2023-03-17T07:47:20.548Z,80.32
2023-03-17T07:52:23.542Z,79.96
2023-03-17T07:57:27.272Z,79.81
2023-03-17T08:02:32.590Z,79.36
2023-03-17T08:07:37.618Z,78.77
2023-03-17T08:12:40.894Z,78.72
2023-03-17T08:17:45.317Z,78.18
2023-03-17T08:22:48.478Z,77.37
2023-03-17T08:27:51.421Z,76.77
2023-03-17T08:32:54.870Z,76.10
2023-03-17T08:37:58.014Z,75.60
2023-03-17T08:43:01.417Z,74.78
2023-03-17T08:48:04.651Z,74.10
2023-03-17T08:53:08.533Z,72.97
2023-03-17T08:58:11.415Z,71.61
2023-03-17T09:03:15.458Z,70.41
2023-03-17T09:08:18.413Z,68.78
2023-03-17T09:13:22.799Z,68.46
2023-03-17T09:18:26.159Z,68.00
2023-03-17T09:23:29.300Z,66.66
2023-03-17T09:28:32.126Z,65.85
2023-03-17T09:33:35.843Z,64.98
2023-03-17T09:38:39.013Z,64.08
2023-03-17T09:44:01.473Z,63.52
2023-03-17T09:49:09.340Z,61.55
2023-03-17T09:54:20.618Z,61.76
2023-03-17T09:59:30.235Z,60.29
2023-03-17T10:04:33.240Z,58.58
2023-03-17T10:09:57.834Z,57.85
2023-03-17T10:15:07.087Z,57.14
2023-03-17T10:20:18.835Z,56.59
2023-03-17T10:25:34.247Z,56.37
2023-03-17T10:30:37.459Z,55.89
2023-03-17T10:35:40.746Z,55.65
2023-03-17T10:40:58.508Z,54.67
2023-03-17T10:46:04.367Z,53.53
2023-03-17T10:51:11.687Z,52.64
2023-03-17T10:56:24.662Z,51.48
2023-03-17T11:01:29.688Z,50.90
2023-03-17T11:06:42.789Z,49.72
2023-03-17T11:11:48.925Z,49.01
2023-03-17T11:17:01.652Z,48.18
2023-03-17T11:22:17.635Z,48.40
2023-03-17T11:27:45.024Z,48.11
2023-03-17T11:32:54.993Z,47.09
2023-03-17T11:38:26.463Z,44.65
2023-03-17T11:44:07.282Z,45.21
2023-03-17T11:49:27.718Z,45.40
2023-03-17T11:54:48.555Z,45.18
2023-03-17T12:00:33.751Z,44.84
2023-03-17T12:05:55.808Z,43.45
2023-03-17T12:11:01.110Z,44.05
2023-03-17T12:16:11.405Z,42.32
2023-03-17T12:21:54.415Z,40.82
2023-03-17T12:27:26.330Z,37.62
2023-03-17T12:32:39.607Z,36.19
2023-03-17T12:37:44.031Z,36.84
2023-03-17T12:43:21.354Z,36.66
2023-03-17T12:49:13.940Z,37.95
2023-03-17T12:54:37.047Z,37.91
2023-03-17T12:59:43.019Z,38.03
2023-03-17T13:04:58.185Z,37.17
2023-03-17T13:10:01.029Z,36.46
2023-03-17T13:15:40.870Z,35.76
2023-03-17T13:21:04.194Z,33.68
2023-03-17T13:26:07.483Z,36.36
2023-03-17T13:31:31.639Z,37.74
2023-03-17T13:37:14.022Z,37.40
2023-03-17T13:42:49.703Z,37.97
2023-03-17T13:47:55.282Z,38.30
2023-03-17T13:53:02.804Z,39.33
2023-03-17T13:58:10.855Z,39.91
2023-03-17T14:03:49.347Z,40.03
2023-03-17T14:08:59.804Z,40.14
2023-03-17T14:14:32.883Z,40.24
2023-03-17T14:19:41.366Z,39.67
2023-03-17T14:24:44.336Z,40.43
2023-03-17T14:29:47.631Z,40.12
2023-03-17T14:34:57.016Z,39.50
2023-03-17T14:40:00.151Z,38.64
2023-03-17T14:45:06.659Z,38.17
2023-03-17T14:50:31.983Z,37.66
2023-03-17T14:55:43.100Z,38.01
2023-03-17T15:00:47.238Z,38.17
2023-03-17T15:05:50.498Z,38.57
2023-03-17T15:10:53.834Z,39.00
2023-03-17T15:15:59.012Z,39.40
2023-03-17T15:21:01.998Z,39.67
2023-03-17T15:26:09.939Z,39.94
2023-03-17T15:31:13.235Z,40.24
2023-03-17T15:36:31.251Z,40.89
2023-03-17T15:41:35.002Z,41.06
2023-03-17T15:46:37.855Z,41.22
2023-03-17T15:51:40.736Z,41.00
2023-03-17T15:56:43.725Z,41.21
2023-03-17T16:01:46.908Z,41.48
2023-03-17T16:06:50.213Z,42.16
2023-03-17T16:11:53.606Z,42.57
2023-03-17T16:16:56.487Z,42.85
2023-03-17T16:21:59.479Z,43.87
2023-03-17T16:27:02.322Z,43.74
2023-03-17T16:32:06.034Z,44.08
2023-03-17T16:37:16.158Z,44.45
2023-03-17T16:42:23.479Z,44.86
2023-03-17T16:47:26.406Z,45.32
2023-03-17T16:52:30.138Z,45.76
2023-03-17T16:57:33.407Z,46.00
2023-03-17T17:02:36.249Z,46.46
2023-03-17T17:07:39.262Z,46.75
2023-03-17T17:12:42.136Z,47.03
2023-03-17T17:17:56.620Z,47.63
2023-03-17T17:23:01.129Z,47.93
2023-03-17T17:28:05.624Z,48.09
2023-03-17T17:33:09.082Z,48.22
2023-03-17T17:38:26.235Z,48.46
2023-03-17T17:43:29.425Z,49.14
2023-03-17T17:48:32.651Z,48.83
2023-03-17T17:53:36.159Z,49.03
2023-03-17T17:58:39.018Z,49.57
2023-03-17T18:03:43.218Z,49.75
2023-03-17T18:08:46.272Z,49.87
2023-03-17T18:13:49.437Z,50.01
2023-03-17T18:18:52.259Z,50.44
2023-03-17T18:23:56.258Z,50.47
2023-03-17T18:28:59.448Z,50.76
2023-03-17T18:34:23.360Z,50.75
2023-03-17T18:39:26.583Z,51.50
2023-03-17T18:44:29.926Z,51.32
2023-03-17T18:49:33.404Z,51.53
2023-03-17T18:54:37.766Z,51.88
2023-03-17T18:59:41.211Z,51.83
2023-03-17T19:04:47.235Z,52.37
2023-03-17T19:09:52.562Z,52.04
2023-03-17T19:14:55.540Z,52.36
2023-03-17T19:19:58.589Z,52.50
2023-03-17T19:25:01.632Z,52.54
2023-03-17T19:30:06.000Z,52.35
2023-03-17T19:35:09.233Z,52.70
2023-03-17T19:40:13.436Z,52.68
2023-03-17T19:45:16.587Z,52.96
2023-03-17T19:50:20.579Z,52.84
2023-03-17T19:55:29.976Z,52.62
2023-03-17T20:00:35.396Z,52.98
2023-03-17T20:05:38.619Z,52.91
2023-03-17T20:10:41.487Z,52.97
2023-03-17T20:15:44.671Z,53.02
2023-03-17T20:20:54.105Z,52.83
2023-03-17T20:25:57.167Z,53.33
2023-03-17T20:31:00.711Z,53.95
2023-03-17T20:36:04.769Z,53.82
2023-03-17T20:41:10.834Z,53.58
2023-03-17T20:46:21.060Z,53.95
2023-03-17T20:51:26.006Z,54.26
2023-03-17T20:56:29.978Z,54.42
2023-03-17T21:01:33.836Z,54.66
2023-03-17T21:06:37.144Z,54.85
2023-03-17T21:11:40.148Z,55.01
2023-03-17T21:16:45.179Z,55.39
2023-03-17T21:21:48.123Z,55.45
2023-03-17T21:26:51.108Z,55.42
2023-03-17T21:31:54.696Z,55.27
2023-03-17T21:36:59.558Z,55.50
2023-03-17T21:42:03.767Z,55.57
2023-03-17T21:47:07.757Z,55.57
2023-03-17T21:52:10.848Z,55.44
2023-03-17T21:57:16.661Z,55.57
2023-03-17T22:02:20.882Z,55.58
2023-03-17T22:07:23.795Z,55.45
2023-03-17T22:12:27.163Z,55.67
2023-03-17T22:17:30.355Z,55.48
2023-03-17T22:22:34.571Z,55.33
2023-03-17T22:27:39.082Z,55.47
2023-03-17T22:32:42.061Z,55.34
2023-03-17T22:37:45.075Z,55.56
2023-03-17T22:42:47.914Z,55.40
2023-03-17T22:47:51.106Z,55.57
2023-03-17T22:52:56.250Z,55.83
2023-03-17T22:57:59.165Z,55.64
2023-03-17T23:03:02.431Z,55.63
2023-03-17T23:08:06.485Z,55.74
2023-03-17T23:13:09.792Z,55.58
2023-03-17T23:18:12.708Z,55.42
2023-03-17T23:23:15.887Z,55.33
2023-03-17T23:28:19.263Z,55.13
2023-03-17T23:33:23.604Z,55.20
2023-03-17T23:38:27.011Z,55.03
2023-03-17T23:43:29.840Z,54.76
2023-03-17T23:48:32.807Z,54.67
2023-03-17T23:53:35.830Z,54.62
2023-03-17T23:58:43.379Z,54.38
